Westville, Oklahoma
Current Conditions -  °F | °C
As of 1:15 AM on Monday 24 Nov 2014 (Local Time) from KSLG Reporting Station
Overcast Overcast  
Wind Chill:   Ceiling: 10000
Heat Index:   Visibility: 10mi
Dew Point:   Wind: 13mph
Humidity: 76%   Direction: 310°NW
Pressure: 29.67"   Gusts: NA
Location:  35.99°N, 94.57°W
Report Text: KSLG 240715Z AUTO 31011KT 10SM BKN100 OVC120 05/01 A2967 RMK AO1
Loading
Personal Weather Stations






























Interactive Weather Map New forecast layout! Learn more

10-Day Weather Forecast

Advertisements
Track Severe Weather on mobile